Morat-Fribourg, une classique moderne ! Morat-Fribourg, la classique moderne ! Morat-Fribourg, la classique moderne ! Bienvenue à la Migros
FR  DE
RangEquipe / Nom PrénomTempsCat.RangGénéral  
1. Trilogie Running Team 1 6:35'09",2   
  Meszaros Thomas 59'49",8M202124
  Carvalho Sergio 1:02'41",1M203343
  Baghin Fabio 1:04'04",5M204560
  Guex Benoît 1:07'06",6M2076115
  Gendre Grégoire 1:10'00",9M20131212
  Farine Yohan 1:11'26",3CadH5278
2. TSV Rechthalten 6:38'04",0   
  Brügger Werner 1:02'17",3M40841
  Gremaud Simon 1:03'57",1JunH359
  Torche Julien 1:07'00",5CadH2113
  Vonlanthen Mario 1:07'31",7M457124
  Rotzetter Marc 1:08'36",0CadH3158
  Vonlanthen Yvan 1:08'41",4M2098162
3. Footing Club Lausanne Hommes 1 6:39'38",3   
  Pointet Jérémy 1:00'35",6M202328
  Marmillod Yves 1:04'06",5M401161
  Fantoli Régis 1:06'44",3M2071107
  Akoa Martin-Eric 1:07'54",3M4026135
  Perez Raoul 1:10'08",5M4517215
  Pellegrino Vincenzo 1:10'09",1M20133216
4. CAG Farvagny 1 6:44'51",4   
  Tobler Tom 1:06'22",5CadH1100
  Piccand Cédric 1:06'54",8M4020110
  Brodard Stéphane 1:07'30",0M4023123
  Marchon Thierry 1:07'46",4M2088133
  Schnyder Simon 1:07'49",5M4025134
  Romanens Pierre 1:08'28",2M4031150
5. LAT Sense 2 6:45'18",6   
  Huber Erich 59'36",4M201922
  Vogelsang Luca 1:01'50",4M202936
  Tschopp Sebastian 1:07'18",9M2080121
  Evans Darren 1:09'59",7M4516210
  Vogt Philippe 1:13'03",5M20212368
  Monteiro Filipe 1:13'29",7M4073402
1 2 3 4 
 © 2016 Course Morat-Fribourg
Design by Atelier 32, Fribourg - Powered by CISEL Informatique SA, Matran